createdAt,value
2022-12-17T00:02:45.210Z,1.98
2022-12-17T00:05:36.336Z,0.85
2022-12-17T00:08:22.177Z,2.28
2022-12-17T00:11:07.440Z,6.15
2022-12-17T00:14:01.439Z,3.72
2022-12-17T00:16:48.358Z,0.75
2022-12-17T00:19:34.121Z,1.05
2022-12-17T00:22:19.646Z,1.85
2022-12-17T00:25:05.216Z,0.60
2022-12-17T00:27:50.576Z,0.75
2022-12-17T00:30:36.164Z,1.30
2022-12-17T00:33:23.242Z,0.38
2022-12-17T00:36:10.766Z,0.88
2022-12-17T00:39:11.111Z,2.88
2022-12-17T00:41:57.092Z,1.30
2022-12-17T00:44:42.570Z,1.02
2022-12-17T00:47:42.549Z,0.70
2022-12-17T00:50:30.835Z,1.50
2022-12-17T00:53:16.666Z,1.00
2022-12-17T00:56:02.308Z,0.57
2022-12-17T00:58:48.154Z,2.60
2022-12-17T01:01:33.789Z,0.57
2022-12-17T01:04:19.828Z,1.45
2022-12-17T01:07:06.895Z,0.95
2022-12-17T01:09:52.267Z,1.58
2022-12-17T01:12:37.838Z,0.88
2022-12-17T01:15:24.522Z,1.45
2022-12-17T01:18:10.570Z,2.28
2022-12-17T01:20:56.437Z,0.35
2022-12-17T01:23:43.479Z,0.95
2022-12-17T01:26:29.515Z,2.20
2022-12-17T01:29:16.250Z,2.45
2022-12-17T01:32:02.028Z,0.68
2022-12-17T01:34:47.447Z,0.40
2022-12-17T01:37:33.424Z,0.50
2022-12-17T01:40:20.638Z,0.40
2022-12-17T01:43:06.409Z,2.20
2022-12-17T01:45:57.391Z,0.90
2022-12-17T01:48:47.707Z,0.20
2022-12-17T01:51:34.434Z,0.57
2022-12-17T01:54:21.107Z,0.30
2022-12-17T01:57:08.677Z,0.90
2022-12-17T02:00:00.233Z,0.82
2022-12-17T02:02:47.487Z,0.65
2022-12-17T02:05:33.876Z,0.20
2022-12-17T02:08:28.137Z,0.20
2022-12-17T02:11:22.973Z,0.25
2022-12-17T02:14:19.715Z,0.32
2022-12-17T02:17:12.350Z,0.20
2022-12-17T02:20:07.938Z,0.22
2022-12-17T02:23:07.293Z,0.60
2022-12-17T02:26:15.157Z,0.30
2022-12-17T02:29:18.529Z,0.73
2022-12-17T02:32:06.010Z,0.22
2022-12-17T02:35:01.182Z,0.70
2022-12-17T02:37:47.339Z,4.72
2022-12-17T02:40:33.047Z,0.55
2022-12-17T02:43:19.837Z,0.98
2022-12-17T02:46:08.258Z,2.00
2022-12-17T02:48:53.340Z,0.57
2022-12-17T02:51:41.769Z,0.20
2022-12-17T02:54:27.123Z,0.20
2022-12-17T02:57:13.110Z,0.22
2022-12-17T02:59:58.455Z,0.20
2022-12-17T03:02:45.716Z,1.92
2022-12-17T03:05:46.522Z,0.20
2022-12-17T03:08:32.383Z,0.85
2022-12-17T03:11:18.210Z,0.13
2022-12-17T03:14:03.858Z,0.30
2022-12-17T03:16:49.448Z,1.50
2022-12-17T03:19:39.671Z,0.38
2022-12-17T03:22:24.940Z,2.28
2022-12-17T03:25:12.258Z,2.53
2022-12-17T03:27:57.583Z,2.38
2022-12-17T03:30:48.498Z,6.60
2022-12-17T03:33:34.804Z,7.63
2022-12-17T03:36:22.608Z,2.72
2022-12-17T03:39:08.270Z,1.60
2022-12-17T03:41:53.726Z,2.83
2022-12-17T03:44:39.236Z,0.45
2022-12-17T03:47:24.727Z,1.08
2022-12-17T03:50:10.258Z,5.57
2022-12-17T03:52:57.376Z,2.00
2022-12-17T03:55:43.084Z,0.52
2022-12-17T03:58:28.616Z,0.80
2022-12-17T04:01:14.343Z,1.15
2022-12-17T04:04:00.290Z,1.75
2022-12-17T04:06:45.944Z,3.50
2022-12-17T04:09:33.001Z,3.00
2022-12-17T04:12:33.212Z,0.88
2022-12-17T04:15:19.061Z,6.70
2022-12-17T04:18:04.771Z,1.92
2022-12-17T04:20:50.300Z,1.58
2022-12-17T04:23:44.287Z,1.30
2022-12-17T04:26:31.088Z,1.20
2022-12-17T04:29:16.765Z,0.45
2022-12-17T04:32:02.506Z,2.63
2022-12-17T04:34:47.997Z,0.57
2022-12-17T04:37:33.363Z,3.90
2022-12-17T04:40:18.984Z,3.78
2022-12-17T04:43:05.914Z,2.50
2022-12-17T04:45:51.458Z,2.53
2022-12-17T04:48:36.806Z,0.32
2022-12-17T04:51:22.972Z,1.38
2022-12-17T04:54:08.738Z,2.08
2022-12-17T04:56:55.223Z,3.17
2022-12-17T04:59:42.434Z,3.47
2022-12-17T05:02:27.989Z,2.22
2022-12-17T05:05:13.817Z,1.73
2022-12-17T05:07:59.314Z,0.45
2022-12-17T05:10:45.149Z,0.70
2022-12-17T05:13:30.533Z,1.75
2022-12-17T05:16:13.874Z,2.20
2022-12-17T05:18:59.494Z,0.93
2022-12-17T05:21:44.910Z,0.30
2022-12-17T05:24:30.535Z,2.25
2022-12-17T05:27:16.041Z,6.65
2022-12-17T05:30:01.607Z,1.73
2022-12-17T05:32:53.750Z,1.52
2022-12-17T05:35:39.312Z,1.25
2022-12-17T05:38:26.418Z,0.55
2022-12-17T05:41:15.205Z,0.50
2022-12-17T05:44:00.838Z,0.75
2022-12-17T05:46:46.809Z,0.60
2022-12-17T05:49:39.346Z,2.95
2022-12-17T05:52:24.983Z,0.77
2022-12-17T05:55:10.591Z,0.57
2022-12-17T05:57:56.764Z,0.73
2022-12-17T06:00:43.034Z,0.77
2022-12-17T06:03:43.422Z,0.43
2022-12-17T06:06:30.231Z,0.00
2022-12-17T06:09:16.141Z,1.08
2022-12-17T06:12:02.954Z,0.25
2022-12-17T06:14:48.858Z,0.38
2022-12-17T06:17:34.410Z,0.28
2022-12-17T06:20:20.017Z,0.40
2022-12-17T06:23:16.674Z,0.32
2022-12-17T06:26:02.277Z,2.50
2022-12-17T06:28:47.849Z,0.63
2022-12-17T06:31:33.601Z,0.47
2022-12-17T06:34:19.046Z,1.23
2022-12-17T06:37:04.951Z,1.42
2022-12-17T06:40:03.373Z,1.65
2022-12-17T06:42:49.382Z,0.80
2022-12-17T06:45:31.506Z,1.20
2022-12-17T06:48:20.823Z,2.33
2022-12-17T06:51:06.236Z,3.20
2022-12-17T06:53:51.797Z,2.92
2022-12-17T06:56:38.422Z,0.52
2022-12-17T06:59:24.045Z,0.40
2022-12-17T07:02:09.890Z,0.47
2022-12-17T07:04:55.762Z,3.13
2022-12-17T07:07:41.470Z,4.47
2022-12-17T07:10:27.722Z,2.67
2022-12-17T07:13:14.368Z,1.80
2022-12-17T07:15:56.611Z,3.72
2022-12-17T07:18:38.634Z,2.10
2022-12-17T07:21:24.963Z,4.68
2022-12-17T07:24:10.433Z,3.17
2022-12-17T07:26:56.140Z,1.25
2022-12-17T07:29:43.140Z,1.38
2022-12-17T07:32:29.020Z,2.10
2022-12-17T07:35:15.668Z,4.90
2022-12-17T07:38:01.241Z,1.40
2022-12-17T07:40:46.904Z,1.02
2022-12-17T07:43:33.572Z,0.65
2022-12-17T07:46:20.635Z,0.68
2022-12-17T07:49:06.714Z,0.80
2022-12-17T07:51:52.169Z,2.08
2022-12-17T07:54:37.843Z,0.20
2022-12-17T07:57:19.914Z,0.55
2022-12-17T08:00:05.168Z,1.95
2022-12-17T08:02:52.590Z,0.50
2022-12-17T08:05:37.886Z,0.77
2022-12-17T08:08:26.843Z,0.63
2022-12-17T08:11:12.619Z,3.50
2022-12-17T08:13:58.297Z,1.92
2022-12-17T08:16:43.832Z,3.17
2022-12-17T08:19:30.906Z,3.17
2022-12-17T08:22:16.177Z,7.80
2022-12-17T08:25:01.878Z,1.90
2022-12-17T08:27:47.543Z,1.95
2022-12-17T08:30:33.211Z,1.25
2022-12-17T08:33:21.792Z,1.42
2022-12-17T08:36:12.356Z,324.98
2022-12-17T08:38:58.238Z,218.27
2022-12-17T08:41:58.361Z,166.65
2022-12-17T08:44:46.905Z,163.52
2022-12-17T08:47:32.228Z,120.40
2022-12-17T08:50:17.775Z,105.15
2022-12-17T08:53:04.497Z,101.18
2022-12-17T08:55:50.154Z,96.53
2022-12-17T08:58:35.857Z,82.15
2022-12-17T09:01:21.674Z,73.28
2022-12-17T09:04:07.097Z,76.65
2022-12-17T09:06:52.751Z,64.15
2022-12-17T09:09:39.667Z,70.15
2022-12-17T09:12:25.419Z,53.92
2022-12-17T09:15:10.956Z,59.08
2022-12-17T09:17:56.443Z,50.00
2022-12-17T09:20:42.621Z,44.75
2022-12-17T09:23:28.325Z,41.60
2022-12-17T09:26:16.316Z,39.33
2022-12-17T09:29:02.047Z,38.33
2022-12-17T09:31:49.728Z,34.05
2022-12-17T09:34:35.792Z,29.73
2022-12-17T09:37:21.787Z,32.33
2022-12-17T09:40:07.342Z,26.67
2022-12-17T09:43:14.075Z,31.58
2022-12-17T09:46:09.605Z,26.60
2022-12-17T09:49:06.178Z,38.33
2022-12-17T09:51:52.678Z,25.52
2022-12-17T09:54:43.846Z,27.98
2022-12-17T09:57:34.765Z,23.05
2022-12-17T10:00:31.774Z,17.92
2022-12-17T10:03:17.182Z,21.33
2022-12-17T10:06:05.329Z,23.38
2022-12-17T10:08:51.230Z,13.23
2022-12-17T10:11:40.729Z,14.32
2022-12-17T10:14:34.313Z,12.40
2022-12-17T10:17:21.518Z,14.60
2022-12-17T10:20:09.954Z,14.43
2022-12-17T10:23:04.752Z,11.82
2022-12-17T10:25:50.852Z,15.77
2022-12-17T10:28:38.211Z,12.57
2022-12-17T10:31:28.180Z,17.23
2022-12-17T10:34:24.789Z,11.38
2022-12-17T10:37:26.300Z,11.25
2022-12-17T10:40:15.124Z,7.78
2022-12-17T10:43:01.143Z,9.63
2022-12-17T10:45:48.854Z,9.80
2022-12-17T10:48:37.593Z,7.10
2022-12-17T10:51:47.667Z,7.60
2022-12-17T10:54:45.428Z,8.15
2022-12-17T10:57:46.942Z,6.45
2022-12-17T11:00:49.304Z,5.05
2022-12-17T11:03:52.140Z,7.32
2022-12-17T11:06:44.954Z,6.18
2022-12-17T11:09:40.122Z,7.20
2022-12-17T11:12:30.870Z,5.65
2022-12-17T11:15:22.765Z,4.70
2022-12-17T11:18:11.520Z,3.53
2022-12-17T11:21:06.129Z,3.53
2022-12-17T11:23:56.567Z,3.17
2022-12-17T11:26:45.432Z,2.58
2022-12-17T11:29:32.401Z,6.22
2022-12-17T11:32:41.687Z,3.50
2022-12-17T11:35:35.863Z,3.33
2022-12-17T11:38:32.337Z,2.67
2022-12-17T11:41:26.807Z,1.88
2022-12-17T11:44:21.796Z,3.75
2022-12-17T11:50:04.156Z,2.15
2022-12-17T11:55:44.632Z,2.55
2022-12-17T11:58:39.209Z,2.55
2022-12-17T12:01:32.761Z,1.73
2022-12-17T12:04:32.825Z,1.77
2022-12-17T12:07:25.638Z,1.65
2022-12-17T12:10:15.836Z,3.42
2022-12-17T12:13:12.916Z,1.88
2022-12-17T12:16:12.229Z,1.42
2022-12-17T12:19:07.531Z,1.42
2022-12-17T12:22:06.343Z,1.20
2022-12-17T12:25:05.364Z,2.13
2022-12-17T12:27:59.706Z,2.03
2022-12-17T12:30:53.761Z,1.25
2022-12-17T12:33:50.781Z,1.23
2022-12-17T12:36:38.682Z,2.25
2022-12-17T12:39:41.654Z,1.35
2022-12-17T12:42:35.621Z,1.05
2022-12-17T12:45:26.165Z,2.15
2022-12-17T12:48:17.299Z,1.73
2022-12-17T12:51:14.123Z,1.20
2022-12-17T12:53:59.499Z,1.90
2022-12-17T12:56:47.645Z,9.68
2022-12-17T12:59:45.113Z,2.35
2022-12-17T13:02:46.481Z,2.10
2022-12-17T13:05:34.683Z,1.90
2022-12-17T13:08:17.666Z,25.58
2022-12-17T13:10:46.638Z,32.80
2022-12-17T13:13:25.884Z,31.50
2022-12-17T13:15:57.376Z,28.75
2022-12-17T13:18:30.489Z,28.48
2022-12-17T13:21:01.512Z,26.42
2022-12-17T13:23:34.574Z,23.48
2022-12-17T13:26:21.627Z,23.35
2022-12-17T13:29:02.216Z,22.45
2022-12-17T13:31:34.902Z,23.52
2022-12-17T13:34:13.066Z,23.05
2022-12-17T13:36:50.843Z,23.38
2022-12-17T13:39:32.262Z,24.63
2022-12-17T13:42:01.361Z,20.50
2022-12-17T13:44:36.130Z,18.52
2022-12-17T13:47:04.354Z,18.83
2022-12-17T13:49:32.736Z,17.83
2022-12-17T13:52:11.415Z,16.35
2022-12-17T13:54:41.433Z,17.52
2022-12-17T13:57:10.531Z,17.27
2022-12-17T13:59:39.544Z,13.07
2022-12-17T14:02:07.868Z,15.90
2022-12-17T14:04:36.089Z,15.27
2022-12-17T14:07:06.372Z,18.35
2022-12-17T14:09:38.005Z,19.30
2022-12-17T14:12:24.670Z,15.15
2022-12-17T14:14:56.971Z,11.98
2022-12-17T14:17:26.736Z,10.90
2022-12-17T14:20:00.187Z,11.60
2022-12-17T14:22:34.704Z,12.70
2022-12-17T14:25:03.593Z,10.05
2022-12-17T14:27:35.902Z,11.68
2022-12-17T14:30:21.604Z,9.30
2022-12-17T14:32:49.697Z,7.28
2022-12-17T14:35:26.564Z,10.88
2022-12-17T14:37:54.834Z,9.93
2022-12-17T14:40:26.924Z,6.80
2022-12-17T14:43:01.006Z,9.07
2022-12-17T14:45:30.078Z,11.70
2022-12-17T14:47:59.913Z,6.65
2022-12-17T14:50:32.361Z,7.63
2022-12-17T14:53:01.993Z,7.95
2022-12-17T14:55:33.789Z,7.00
2022-12-17T14:58:21.938Z,6.82
2022-12-17T15:00:53.734Z,6.72
2022-12-17T15:03:24.864Z,5.82
2022-12-17T15:05:56.364Z,9.13
2022-12-17T15:08:24.776Z,5.20
2022-12-17T15:10:52.957Z,4.18
2022-12-17T15:13:22.872Z,3.70
2022-12-17T15:15:51.035Z,5.70
2022-12-17T15:18:19.083Z,4.32
2022-12-17T15:20:47.470Z,3.83
2022-12-17T15:23:18.428Z,4.93
2022-12-17T15:25:47.499Z,4.38
2022-12-17T15:28:16.447Z,3.38
2022-12-17T15:30:46.630Z,3.20
2022-12-17T15:33:15.204Z,2.97
2022-12-17T15:35:44.040Z,2.65
2022-12-17T15:38:13.414Z,2.55
2022-12-17T15:40:42.088Z,2.60
2022-12-17T15:43:13.429Z,2.63
2022-12-17T15:45:42.761Z,4.13
2022-12-17T15:48:13.465Z,2.72
2022-12-17T15:50:41.654Z,2.40
2022-12-17T15:53:10.306Z,2.13
2022-12-17T15:55:38.896Z,1.77
2022-12-17T15:58:07.914Z,2.28
2022-12-17T16:00:36.539Z,2.75
2022-12-17T16:03:05.156Z,2.88
2022-12-17T16:05:34.712Z,1.95
2022-12-17T16:08:03.147Z,2.00
2022-12-17T16:10:31.694Z,1.63
2022-12-17T16:12:59.759Z,4.65
2022-12-17T16:15:28.834Z,2.28
2022-12-17T16:17:56.974Z,2.13
2022-12-17T16:20:25.888Z,2.15
2022-12-17T16:22:55.369Z,2.28
2022-12-17T16:25:23.539Z,1.60
2022-12-17T16:27:51.552Z,2.95
2022-12-17T16:30:19.820Z,2.78
2022-12-17T16:32:47.929Z,2.35
2022-12-17T16:35:16.084Z,1.60
2022-12-17T16:37:44.136Z,1.75
2022-12-17T16:40:14.138Z,1.42
2022-12-17T16:42:42.181Z,2.58
2022-12-17T16:45:11.093Z,1.63
2022-12-17T16:47:39.117Z,1.52
2022-12-17T16:50:07.650Z,1.95
2022-12-17T16:52:36.221Z,3.63
2022-12-17T16:55:04.570Z,4.30
2022-12-17T16:57:33.963Z,3.80
2022-12-17T17:00:02.191Z,4.80
2022-12-17T17:02:30.511Z,3.78
2022-12-17T17:04:58.861Z,2.95
2022-12-17T17:07:26.979Z,3.38
2022-12-17T17:09:55.258Z,5.63
2022-12-17T17:12:23.460Z,5.47
2022-12-17T17:14:52.985Z,3.67
2022-12-17T17:17:55.980Z,3.00
2022-12-17T17:20:10.126Z,2.85
2022-12-17T17:22:38.285Z,3.55
2022-12-17T17:25:07.000Z,3.88
2022-12-17T17:27:35.215Z,2.80
2022-12-17T17:30:05.669Z,3.42
2022-12-17T17:32:33.758Z,2.83
2022-12-17T17:35:01.867Z,3.22
2022-12-17T17:37:29.970Z,3.78
2022-12-17T17:39:57.997Z,3.92
2022-12-17T17:42:28.685Z,2.72
2022-12-17T17:44:56.727Z,3.17
2022-12-17T17:47:26.065Z,3.35
2022-12-17T17:49:54.186Z,2.95
2022-12-17T17:52:22.304Z,3.00
2022-12-17T17:54:50.347Z,4.35
2022-12-17T17:57:18.383Z,3.60
2022-12-17T17:59:46.533Z,9.10
2022-12-17T18:02:14.708Z,6.30
2022-12-17T18:04:44.226Z,7.65
2022-12-17T18:07:28.622Z,7.45
2022-12-17T18:12:51.026Z,7.15
2022-12-17T18:15:19.343Z,7.83
2022-12-17T18:17:50.236Z,7.43
2022-12-17T18:20:19.830Z,6.30
2022-12-17T18:22:47.927Z,7.10
2022-12-17T18:25:16.829Z,6.97
2022-12-17T18:27:44.990Z,7.00
2022-12-17T18:30:13.589Z,6.28
2022-12-17T18:32:42.652Z,5.93
2022-12-17T18:35:11.223Z,6.05
2022-12-17T18:37:40.648Z,4.35
2022-12-17T18:40:09.832Z,5.35
2022-12-17T18:42:55.473Z,9.38
2022-12-17T18:45:23.700Z,9.05
2022-12-17T18:47:52.199Z,7.43
2022-12-17T18:50:20.411Z,7.45
2022-12-17T18:52:50.024Z,7.13
2022-12-17T18:55:18.323Z,7.68
2022-12-17T18:57:47.205Z,8.13
2022-12-17T19:00:16.211Z,6.78
2022-12-17T19:02:45.104Z,8.95
2022-12-17T19:05:13.328Z,6.25
2022-12-17T19:07:41.507Z,5.90
2022-12-17T19:10:12.649Z,5.60
2022-12-17T19:12:40.745Z,6.05
2022-12-17T19:15:09.912Z,4.85
2022-12-17T19:17:38.035Z,5.10
2022-12-17T19:20:06.846Z,6.78
2022-12-17T19:22:35.045Z,7.72
2022-12-17T19:25:03.107Z,5.68
2022-12-17T19:27:32.679Z,6.00
2022-12-17T19:30:00.735Z,4.20
2022-12-17T19:32:28.876Z,5.38
2022-12-17T19:34:56.914Z,4.78
2022-12-17T19:37:24.953Z,4.68
2022-12-17T19:39:53.090Z,4.30
2022-12-17T19:42:33.504Z,4.78
2022-12-17T19:45:04.866Z,6.88
2022-12-17T19:47:32.955Z,5.45
2022-12-17T19:50:00.948Z,4.63
2022-12-17T19:52:29.094Z,5.75
2022-12-17T19:54:57.196Z,4.32
2022-12-17T19:57:25.226Z,5.07
2022-12-17T19:59:53.422Z,3.78
2022-12-17T20:02:24.882Z,4.53
2022-12-17T20:04:55.299Z,4.05
2022-12-17T20:07:23.466Z,4.88
2022-12-17T20:09:51.497Z,4.10
2022-12-17T20:12:19.537Z,3.72
2022-12-17T20:14:47.583Z,3.78
2022-12-17T20:17:15.980Z,2.90
2022-12-17T20:19:45.390Z,3.08
2022-12-17T20:22:13.406Z,2.58
2022-12-17T20:24:41.436Z,4.75
2022-12-17T20:27:10.898Z,5.78
2022-12-17T20:29:39.157Z,2.92
2022-12-17T20:32:07.207Z,3.22
2022-12-17T20:34:35.686Z,3.25
2022-12-17T20:37:05.072Z,3.55
2022-12-17T20:39:33.131Z,5.30
2022-12-17T20:42:01.228Z,4.20
2022-12-17T20:44:29.554Z,3.53
2022-12-17T20:46:57.591Z,3.88
2022-12-17T20:49:25.968Z,3.75
2022-12-17T20:51:54.131Z,4.22
2022-12-17T20:54:23.734Z,3.53
2022-12-17T20:56:51.765Z,2.70
2022-12-17T20:59:20.792Z,3.53
2022-12-17T21:01:55.599Z,5.57
2022-12-17T21:04:24.894Z,2.50
2022-12-17T21:06:53.203Z,2.80
2022-12-17T21:09:25.249Z,3.35
2022-12-17T21:11:53.620Z,5.05
2022-12-17T21:14:21.612Z,3.50
2022-12-17T21:16:50.148Z,3.83
2022-12-17T21:19:20.056Z,7.30
2022-12-17T21:21:48.751Z,6.20
2022-12-17T21:24:16.963Z,6.35
2022-12-17T21:26:48.385Z,6.75
2022-12-17T21:29:17.260Z,5.78
2022-12-17T21:31:47.021Z,7.72
2022-12-17T21:34:18.213Z,6.53
2022-12-17T21:36:46.596Z,6.47
2022-12-17T21:39:15.893Z,7.88
2022-12-17T21:42:03.589Z,5.75
2022-12-17T21:44:32.151Z,6.32
2022-12-17T21:47:00.170Z,5.93
2022-12-17T21:49:28.371Z,5.70
2022-12-17T21:51:59.159Z,5.70
2022-12-17T21:54:27.374Z,4.35
2022-12-17T21:56:56.933Z,6.00
2022-12-17T21:59:25.088Z,5.18
2022-12-17T22:01:57.047Z,7.20
2022-12-17T22:04:25.884Z,5.88
2022-12-17T22:06:57.713Z,5.20
2022-12-17T22:10:25.468Z,7.75
2022-12-17T22:12:49.492Z,4.72
2022-12-17T22:15:17.718Z,3.88
2022-12-17T22:17:46.228Z,5.05
2022-12-17T22:20:16.167Z,3.60
2022-12-17T22:22:44.645Z,13.60
2022-12-17T22:25:14.145Z,18.45
2022-12-17T22:27:44.279Z,6.00
2022-12-17T22:30:33.161Z,14.38
2022-12-17T22:33:09.852Z,9.80
2022-12-17T22:36:51.230Z,10.07
2022-12-17T22:42:39.975Z,8.52
2022-12-17T22:44:38.218Z,9.30
2022-12-17T22:44:51.203Z,10.23
2022-12-17T22:47:21.146Z,8.35
2022-12-17T22:49:49.704Z,8.77
2022-12-17T22:52:18.359Z,44.97
2022-12-17T22:54:47.950Z,42.17
2022-12-17T22:57:36.287Z,29.83
2022-12-17T23:00:10.657Z,26.27
2022-12-17T23:05:07.410Z,23.95
2022-12-17T23:07:35.962Z,24.92
2022-12-17T23:10:04.396Z,19.70
2022-12-17T23:12:49.753Z,28.65
2022-12-17T23:15:22.328Z,20.75
2022-12-17T23:17:50.808Z,27.60
2022-12-17T23:20:18.897Z,23.90
2022-12-17T23:22:47.261Z,25.42
2022-12-17T23:25:15.387Z,23.90
2022-12-17T23:27:43.814Z,18.90
2022-12-17T23:30:13.807Z,20.83
2022-12-17T23:32:43.348Z,12.90
2022-12-17T23:35:12.187Z,18.95
2022-12-17T23:37:40.618Z,13.32
2022-12-17T23:40:13.167Z,22.10
2022-12-17T23:42:41.381Z,12.70
2022-12-17T23:45:11.830Z,16.13
2022-12-17T23:47:42.928Z,12.57
2022-12-17T23:50:12.294Z,13.85
2022-12-17T23:52:40.854Z,7.90
2022-12-17T23:55:11.072Z,10.60
2022-12-17T23:57:39.229Z,8.05
